Time;durP1;ratioP1;P1;durP2;ratioP2;P2;SDS_P1;SDS_P2;PMS_P1;PMS_P2;Temp;Humidity;BMP_temperature;BMP_pressure;BME280_temperature;BME280_humidity;BME280_pressure;Samples;Min_cycle;Max_cycle;Signal;HPM_P1;HPM_P2
2023/12/12 00:02:22;;;;;;;9.52;1.85;;;7.50;99.90;;;;;;4990215;28;21112;-68
2023/12/12 00:04:48;;;;;;;6.97;1.23;;;7.40;99.90;;;;;;4938844;28;20037;-68
2023/12/12 00:07:14;;;;;;;8.23;2.13;;;7.50;99.90;;;;;;4988849;28;20444;-68
2023/12/12 00:09:39;;;;;;;9.48;2.00;;;7.40;99.90;;;;;;4988539;28;20120;-68
2023/12/12 00:12:05;;;;;;;11.07;2.65;;;7.40;99.90;;;;;;4988920;28;20038;-68
2023/12/12 00:14:31;;;;;;;6.10;1.65;;;7.40;99.90;;;;;;4989241;28;20999;-69
2023/12/12 00:16:57;;;;;;;7.15;1.95;;;7.40;99.90;;;;;;5004314;28;20050;-69
2023/12/12 00:19:22;;;;;;;13.43;2.00;;;7.30;99.90;;;;;;4990545;28;20129;-69
2023/12/12 00:21:48;;;;;;;7.35;1.75;;;7.30;99.90;;;;;;4987391;28;20128;-69
2023/12/12 00:24:14;;;;;;;4.45;1.42;;;7.00;99.90;;;;;;4988359;28;20685;-69
2023/12/12 00:26:40;;;;;;;5.93;1.63;;;7.10;99.90;;;;;;4990123;28;20042;-68
2023/12/12 00:29:06;;;;;;;8.18;1.83;;;7.10;99.90;;;;;;4988020;28;20045;-69
2023/12/12 00:31:31;;;;;;;8.27;1.80;;;7.10;99.90;;;;;;4989677;28;20042;-69
2023/12/12 00:33:57;;;;;;;7.72;1.92;;;7.00;99.90;;;;;;4987668;28;20544;-69
2023/12/12 00:36:23;;;;;;;13.30;1.95;;;7.00;99.90;;;;;;4987617;28;20125;-68
2023/12/12 00:38:50;;;;;;;9.20;2.03;;;6.90;99.90;;;;;;4986569;28;20049;-68
2023/12/12 00:41:16;;;;;;;6.22;1.70;;;6.90;99.90;;;;;;4989890;28;20050;-68
2023/12/12 00:43:42;;;;;;;6.97;1.60;;;6.80;99.90;;;;;;4988129;28;20045;-69
2023/12/12 00:46:10;;;;;;;6.97;2.00;;;6.80;99.90;;;;;;4989162;28;20535;-67
2023/12/12 00:48:36;;;;;;;11.00;2.63;;;6.80;99.90;;;;;;4989000;28;20565;-69
2023/12/12 00:51:01;;;;;;;8.15;1.40;;;6.70;99.90;;;;;;4987762;28;20361;-68
2023/12/12 00:53:27;;;;;;;6.88;1.95;;;6.80;99.90;;;;;;4988515;28;20089;-69
2023/12/12 00:55:53;;;;;;;5.20;1.75;;;6.70;99.90;;;;;;4987403;28;20123;-69
2023/12/12 00:58:18;;;;;;;4.68;1.48;;;6.60;99.90;;;;;;4976231;28;20506;-68
2023/12/12 01:00:44;;;;;;;8.90;1.42;;;6.60;99.90;;;;;;4989855;28;20113;-69
2023/12/12 01:03:10;;;;;;;6.35;1.38;;;6.60;99.90;;;;;;4987354;28;20048;-68
2023/12/12 01:05:36;;;;;;;6.30;1.45;;;6.60;99.90;;;;;;4986471;28;20494;-69
2023/12/12 01:08:02;;;;;;;7.57;1.35;;;6.50;99.90;;;;;;4987644;28;20042;-68
2023/12/12 01:10:28;;;;;;;6.22;1.73;;;6.60;99.90;;;;;;4986991;28;20666;-69
2023/12/12 01:12:54;;;;;;;7.57;1.23;;;6.50;99.90;;;;;;4988062;28;20042;-69
2023/12/12 01:15:19;;;;;;;5.45;1.30;;;6.50;99.90;;;;;;4985902;28;20077;-68
2023/12/12 01:17:46;;;;;;;6.60;1.33;;;6.50;99.90;;;;;;4984997;28;20433;-68
2023/12/12 01:20:11;;;;;;;8.43;1.52;;;6.40;99.90;;;;;;4989275;28;20078;-68
2023/12/12 01:22:37;;;;;;;7.97;1.55;;;6.30;99.90;;;;;;4984963;28;20137;-68
2023/12/12 01:25:03;;;;;;;8.90;1.50;;;6.30;99.90;;;;;;4986607;28;20052;-68
2023/12/12 01:27:29;;;;;;;5.90;1.45;;;6.30;99.90;;;;;;4988565;28;20041;-69
2023/12/12 01:29:55;;;;;;;5.10;1.50;;;6.20;99.90;;;;;;4988319;28;20214;-69
2023/12/12 01:32:21;;;;;;;10.32;1.80;;;6.10;99.90;;;;;;4987958;28;20524;-69
2023/12/12 01:34:47;;;;;;;4.35;1.50;;;6.10;99.90;;;;;;4988030;28;20046;-70
2023/12/12 01:37:12;;;;;;;8.00;2.20;;;6.10;99.90;;;;;;4987136;28;20049;-69
2023/12/12 01:39:38;;;;;;;5.45;1.77;;;6.00;99.90;;;;;;4988831;28;20491;-69
2023/12/12 01:42:04;;;;;;;5.32;2.13;;;6.00;99.90;;;;;;4987814;28;20034;-68
2023/12/12 01:44:30;;;;;;;8.45;2.85;;;6.00;99.90;;;;;;4986268;28;20093;-68
2023/12/12 01:46:56;;;;;;;4.80;1.52;;;6.00;99.90;;;;;;4988620;28;20077;-68
2023/12/12 01:49:21;;;;;;;7.57;2.20;;;6.00;99.90;;;;;;4970180;28;20074;-68
2023/12/12 01:51:47;;;;;;;4.03;1.60;;;5.90;99.90;;;;;;4986883;28;20061;-69
2023/12/12 01:54:16;;;;;;;4.72;1.80;;;5.90;99.90;;;;;;4986003;28;20030;-69
2023/12/12 01:56:45;;;;;;;6.90;1.60;;;5.90;99.90;;;;;;4988146;28;20045;-69
2023/12/12 01:59:11;;;;;;;9.15;2.00;;;6.00;99.90;;;;;;4986402;28;20508;-68
2023/12/12 02:01:38;;;;;;;5.30;1.52;;;5.90;99.90;;;;;;4988223;28;20053;-68
2023/12/12 02:04:05;;;;;;;4.43;1.70;;;5.80;99.90;;;;;;4987648;28;21836;-69
2023/12/12 02:06:31;;;;;;;8.05;2.15;;;5.80;99.90;;;;;;4985881;28;20317;-69
2023/12/12 02:08:57;;;;;;;7.63;2.67;;;5.80;99.90;;;;;;4987097;28;20680;-69
2023/12/12 02:11:23;;;;;;;7.10;1.83;;;5.70;99.90;;;;;;4984866;28;20625;-69
2023/12/12 02:13:49;;;;;;;3.72;1.98;;;5.70;99.90;;;;;;4988533;28;20046;-69
2023/12/12 02:16:15;;;;;;;7.32;1.77;;;5.70;99.90;;;;;;4985906;28;20053;-68
2023/12/12 02:18:40;;;;;;;6.30;1.70;;;5.70;99.90;;;;;;4986299;28;20038;-69
2023/12/12 02:21:06;;;;;;;7.45;1.70;;;5.60;99.90;;;;;;4986946;28;20052;-67
2023/12/12 02:23:32;;;;;;;6.07;1.90;;;5.50;99.90;;;;;;4987644;28;20051;-68
2023/12/12 02:25:59;;;;;;;7.05;1.70;;;5.40;99.90;;;;;;4987114;28;20034;-69
2023/12/12 02:28:26;;;;;;;5.20;2.10;;;5.30;99.90;;;;;;4985152;28;20517;-68
2023/12/12 02:30:51;;;;;;;3.80;1.67;;;5.30;99.90;;;;;;4986863;28;20128;-68
2023/12/12 02:33:17;;;;;;;6.28;1.90;;;5.30;99.90;;;;;;4988041;28;20402;-68
2023/12/12 02:35:43;;;;;;;4.65;1.90;;;5.30;99.90;;;;;;4994043;28;20076;-68
2023/12/12 02:38:09;;;;;;;4.03;1.70;;;5.40;99.90;;;;;;5011739;28;20168;-69
2023/12/12 02:40:35;;;;;;;6.53;1.60;;;5.40;99.90;;;;;;5001823;28;20125;-69
2023/12/12 02:43:00;;;;;;;3.08;1.50;;;5.30;99.90;;;;;;5002881;28;20085;-68
2023/12/12 02:45:26;;;;;;;5.78;2.33;;;5.20;99.90;;;;;;5005507;28;20046;-68
2023/12/12 02:47:52;;;;;;;4.35;1.70;;;5.20;99.90;;;;;;5004879;28;20178;-68
2023/12/12 02:50:18;;;;;;;9.20;1.73;;;5.30;99.90;;;;;;5000877;28;20046;-69
2023/12/12 02:52:44;;;;;;;5.78;1.80;;;5.20;99.90;;;;;;5002773;28;20069;-69
2023/12/12 02:55:10;;;;;;;3.97;1.67;;;5.20;99.90;;;;;;5005965;28;20189;-69
2023/12/12 02:57:36;;;;;;;7.90;2.55;;;5.10;99.90;;;;;;4996137;28;20042;-69
2023/12/12 03:00:03;;;;;;;7.18;1.98;;;5.10;99.90;;;;;;4990497;28;20046;-69
2023/12/12 03:02:30;;;;;;;7.07;2.70;;;5.00;99.90;;;;;;4989460;28;20056;-69
2023/12/12 03:04:57;;;;;;;3.35;1.77;;;5.00;99.90;;;;;;4989221;28;20117;-68
2023/12/12 03:07:23;;;;;;;7.50;3.50;;;5.10;99.90;;;;;;4992165;28;20386;-69
2023/12/12 03:09:49;;;;;;;4.55;2.55;;;5.00;99.90;;;;;;4991024;28;20065;-69
2023/12/12 03:12:15;;;;;;;10.50;3.60;;;5.00;99.90;;;;;;4988573;28;20050;-69
2023/12/12 03:14:41;;;;;;;9.68;3.10;;;4.90;99.90;;;;;;4989390;28;20244;-66
2023/12/12 03:17:08;;;;;;;8.45;4.30;;;4.80;99.90;;;;;;4991808;28;20439;-69
2023/12/12 03:19:33;;;;;;;10.98;3.17;;;4.80;99.90;;;;;;4990039;28;20042;-69
2023/12/12 03:21:59;;;;;;;5.70;3.00;;;4.90;99.90;;;;;;4987527;28;20046;-69
2023/12/12 03:24:25;;;;;;;4.70;2.40;;;4.80;99.90;;;;;;4989624;28;20406;-69
2023/12/12 03:26:51;;;;;;;8.70;2.38;;;4.80;99.90;;;;;;4988735;28;20042;-69
2023/12/12 03:29:17;;;;;;;6.85;2.60;;;4.80;99.90;;;;;;4997375;28;20045;-69
2023/12/12 03:31:43;;;;;;;5.47;2.45;;;4.80;99.90;;;;;;5000591;28;20438;-69
2023/12/12 03:34:08;;;;;;;4.50;2.00;;;4.90;99.90;;;;;;4996215;28;20048;-68
2023/12/12 03:36:35;;;;;;;12.30;2.35;;;4.90;99.90;;;;;;4975060;28;20084;-69
2023/12/12 03:39:01;;;;;;;8.63;1.90;;;5.00;99.90;;;;;;4997968;28;20042;-69
2023/12/12 03:41:30;;;;;;;10.98;2.60;;;5.00;99.90;;;;;;5004075;28;20034;-69
2023/12/12 03:43:56;;;;;;;5.18;1.67;;;5.10;99.90;;;;;;4997214;28;20497;-68
2023/12/12 03:46:22;;;;;;;6.75;1.90;;;5.00;99.90;;;;;;4999346;28;20049;-68
2023/12/12 03:48:47;;;;;;;7.78;2.17;;;5.10;99.90;;;;;;4998971;28;20038;-69
2023/12/12 03:51:13;;;;;;;8.90;2.30;;;5.10;99.90;;;;;;4987784;28;20030;-68
2023/12/12 03:53:39;;;;;;;8.43;2.30;;;5.10;99.90;;;;;;4988419;28;20104;-68
2023/12/12 03:56:06;;;;;;;7.38;2.30;;;5.00;99.90;;;;;;4987670;28;20128;-69
2023/12/12 03:58:32;;;;;;;3.30;1.80;;;5.00;99.90;;;;;;4988637;28;20050;-69
2023/12/12 04:00:58;;;;;;;4.75;1.80;;;4.90;99.90;;;;;;4988979;28;20273;-69
2023/12/12 04:03:24;;;;;;;2.75;1.23;;;4.80;99.90;;;;;;4988096;28;20066;-69
2023/12/12 04:05:51;;;;;;;7.70;2.15;;;4.70;99.90;;;;;;4989380;28;20070;-69
2023/12/12 04:08:16;;;;;;;4.25;1.70;;;4.60;99.90;;;;;;4987283;28;20077;-69
2023/12/12 04:10:42;;;;;;;3.95;1.95;;;4.70;99.90;;;;;;4988450;28;20125;-68
2023/12/12 04:13:08;;;;;;;10.95;2.40;;;4.70;99.90;;;;;;4987498;28;20069;-69
2023/12/12 04:15:34;;;;;;;3.13;1.83;;;4.70;99.90;;;;;;4988298;28;20195;-69
2023/12/12 04:18:00;;;;;;;6.50;1.80;;;4.60;99.90;;;;;;4988622;28;20065;-69
2023/12/12 04:20:25;;;;;;;7.00;1.75;;;4.70;99.90;;;;;;4989539;28;20045;-68
2023/12/12 04:22:51;;;;;;;7.47;2.17;;;4.70;99.90;;;;;;4992560;28;20054;-69
2023/12/12 04:25:19;;;;;;;3.95;1.80;;;4.70;99.90;;;;;;4987797;28;20065;-68
2023/12/12 04:27:45;;;;;;;6.45;1.90;;;4.70;99.90;;;;;;4972017;28;20130;-69
2023/12/12 04:30:11;;;;;;;8.45;1.88;;;4.60;99.90;;;;;;4987024;28;20037;-69
2023/12/12 04:32:36;;;;;;;11.23;2.28;;;4.60;99.90;;;;;;4971085;28;20163;-69
2023/12/12 04:35:05;;;;;;;4.35;1.70;;;4.60;99.90;;;;;;4988616;28;20129;-69
2023/12/12 04:37:31;;;;;;;3.85;1.42;;;4.60;99.90;;;;;;4987317;28;20092;-69
2023/12/12 04:39:57;;;;;;;6.00;1.75;;;4.50;99.90;;;;;;4986993;28;20124;-68
2023/12/12 04:42:26;;;;;;;6.90;1.70;;;4.40;99.90;;;;;;4988127;28;20049;-69
2023/12/12 04:44:51;;;;;;;5.63;1.60;;;4.50;99.90;;;;;;4986694;28;20552;-69
2023/12/12 04:47:17;;;;;;;9.27;2.75;;;4.40;99.90;;;;;;4988332;28;20073;-69
2023/12/12 04:49:43;;;;;;;2.25;1.52;;;4.40;99.90;;;;;;4989634;28;20091;-69
2023/12/12 04:52:09;;;;;;;4.15;1.80;;;4.40;99.90;;;;;;4989350;28;20038;-69
2023/12/12 04:54:35;;;;;;;4.10;1.63;;;4.30;99.90;;;;;;4979106;28;20179;-69
2023/12/12 04:57:00;;;;;;;5.25;1.90;;;4.30;99.90;;;;;;4987784;28;20128;-69
2023/12/12 04:59:26;;;;;;;4.93;2.25;;;4.40;99.90;;;;;;4987969;28;20123;-69
2023/12/12 05:01:52;;;;;;;8.55;2.20;;;4.30;99.90;;;;;;4989230;28;20077;-69
2023/12/12 05:04:18;;;;;;;9.57;2.38;;;4.30;99.90;;;;;;4986878;28;20485;-69
2023/12/12 05:06:44;;;;;;;4.35;1.75;;;4.20;99.90;;;;;;4986166;28;20480;-68
2023/12/12 05:09:10;;;;;;;5.22;2.03;;;4.20;99.90;;;;;;4986627;28;20037;-68
2023/12/12 05:11:36;;;;;;;7.20;1.98;;;4.30;99.90;;;;;;4969408;28;20104;-69
2023/12/12 05:14:04;;;;;;;7.85;2.25;;;4.30;99.90;;;;;;4987212;28;20603;-69
2023/12/12 05:16:30;;;;;;;4.57;2.13;;;4.30;99.90;;;;;;4988896;28;20061;-69
2023/12/12 05:18:56;;;;;;;4.18;2.03;;;4.40;99.90;;;;;;4986539;28;20454;-69
2023/12/12 05:21:22;;;;;;;6.13;2.50;;;4.40;99.90;;;;;;4988184;28;20045;-69
2023/12/12 05:23:49;;;;;;;4.32;1.88;;;4.50;99.90;;;;;;4997199;28;20084;-68
2023/12/12 05:26:15;;;;;;;5.63;2.20;;;4.40;99.90;;;;;;4993672;28;20509;-69
2023/12/12 05:28:41;;;;;;;7.72;2.08;;;4.30;99.90;;;;;;5000999;28;20038;-69
2023/12/12 05:31:07;;;;;;;6.72;2.47;;;4.40;99.90;;;;;;5001309;28;20037;-69
2023/12/12 05:33:33;;;;;;;4.95;2.30;;;4.40;99.90;;;;;;5002091;28;20057;-69
2023/12/12 05:35:59;;;;;;;6.25;2.97;;;4.40;99.90;;;;;;5002933;28;20030;-69
2023/12/12 05:38:25;;;;;;;13.38;3.38;;;4.60;99.90;;;;;;4997064;28;20077;-69
2023/12/12 05:40:50;;;;;;;5.50;2.92;;;4.60;99.90;;;;;;4988684;28;20045;-68
2023/12/12 05:43:16;;;;;;;9.20;3.22;;;4.60;99.90;;;;;;4986521;28;20152;-69
2023/12/12 05:45:42;;;;;;;8.52;2.88;;;4.60;99.90;;;;;;4985737;28;20133;-68
2023/12/12 05:48:08;;;;;;;9.20;2.72;;;4.60;99.90;;;;;;4988377;28;20037;-68
2023/12/12 05:50:34;;;;;;;7.90;2.67;;;4.60;99.90;;;;;;4975357;28;20043;-68
2023/12/12 05:53:00;;;;;;;9.43;2.60;;;4.60;99.90;;;;;;4991031;28;20037;-69
2023/12/12 05:55:28;;;;;;;6.55;2.70;;;4.70;99.90;;;;;;4989425;28;20141;-68
2023/12/12 05:57:53;;;;;;;8.13;2.90;;;4.80;99.90;;;;;;4988448;28;20096;-69
2023/12/12 06:00:19;;;;;;;10.38;3.25;;;4.80;99.90;;;;;;4990388;28;20505;-69
2023/12/12 06:02:45;;;;;;;13.85;3.50;;;4.80;99.90;;;;;;4993616;28;21227;-68
2023/12/12 06:05:11;;;;;;;7.82;3.58;;;4.80;99.90;;;;;;4998755;28;20069;-69
2023/12/12 06:07:38;;;;;;;10.10;3.50;;;4.90;99.90;;;;;;4999576;28;20129;-68
2023/12/12 06:10:08;;;;;;;10.40;3.08;;;4.80;99.90;;;;;;4997395;28;20073;-68
2023/12/12 06:12:34;;;;;;;7.63;4.25;;;4.90;99.90;;;;;;4998637;28;20570;-68
2023/12/12 06:15:01;;;;;;;18.67;5.20;;;4.80;99.90;;;;;;5000616;28;20050;-69
2023/12/12 06:17:26;;;;;;;8.68;3.83;;;4.90;99.90;;;;;;5000554;28;20109;-68
2023/12/12 06:19:52;;;;;;;10.55;3.90;;;4.90;99.90;;;;;;5003870;28;20048;-69
2023/12/12 06:22:18;;;;;;;4.88;3.08;;;4.80;99.90;;;;;;5004401;28;20097;-69
2023/12/12 06:24:45;;;;;;;7.75;4.15;;;4.80;99.90;;;;;;4994341;28;20614;-69
2023/12/12 06:27:11;;;;;;;11.05;3.60;;;4.80;99.90;;;;;;4989605;28;20793;-69
2023/12/12 06:29:36;;;;;;;9.73;4.32;;;4.70;99.90;;;;;;4972915;28;20225;-68
2023/12/12 06:32:02;;;;;;;7.60;3.80;;;4.70;99.90;;;;;;4971323;28;20057;-68
2023/12/12 06:34:28;;;;;;;8.35;3.50;;;4.70;99.90;;;;;;4991424;28;20453;-68
2023/12/12 06:36:54;;;;;;;12.13;4.20;;;4.70;99.90;;;;;;4989662;28;20412;-69
2023/12/12 06:39:20;;;;;;;11.27;3.83;;;4.70;99.90;;;;;;4995923;28;20057;-68
2023/12/12 06:41:46;;;;;;;9.27;4.63;;;4.70;99.90;;;;;;4996060;28;20042;-68
2023/12/12 06:44:11;;;;;;;11.55;4.25;;;4.70;99.90;;;;;;4990630;28;20049;-68
2023/12/12 06:46:37;;;;;;;8.13;4.30;;;4.70;99.90;;;;;;4989909;28;20045;-68
2023/12/12 06:49:06;;;;;;;6.82;4.57;;;4.60;99.90;;;;;;4989949;28;20191;-68
2023/12/12 06:51:32;;;;;;;9.18;4.15;;;4.60;99.90;;;;;;4989881;28;20044;-69
2023/12/12 06:53:58;;;;;;;15.10;5.75;;;4.60;99.90;;;;;;4988170;28;20157;-68
2023/12/12 06:56:26;;;;;;;14.02;5.78;;;4.70;99.90;;;;;;4988096;28;20054;-69
2023/12/12 06:58:51;;;;;;;11.48;5.70;;;4.60;99.90;;;;;;4989708;28;20056;-69
2023/12/12 07:01:17;;;;;;;10.13;6.55;;;4.70;99.90;;;;;;4973173;28;20045;-69
2023/12/12 07:03:43;;;;;;;12.45;6.25;;;4.80;99.90;;;;;;4990218;28;20041;-69
2023/12/12 07:06:09;;;;;;;12.38;6.60;;;4.70;99.90;;;;;;4988635;28;20408;-69
2023/12/12 07:08:35;;;;;;;14.93;6.32;;;4.80;99.90;;;;;;4981029;28;20049;-69
2023/12/12 07:11:01;;;;;;;13.85;5.47;;;4.70;99.90;;;;;;4988193;28;20057;-69
2023/12/12 07:13:27;;;;;;;19.63;6.13;;;4.80;99.90;;;;;;4990425;28;20054;-69
2023/12/12 07:15:53;;;;;;;12.93;5.82;;;4.70;99.90;;;;;;4988506;28;20173;-70
2023/12/12 07:18:19;;;;;;;18.65;6.63;;;4.80;99.90;;;;;;4987690;28;20038;-69
2023/12/12 07:20:46;;;;;;;43.38;7.95;;;4.80;99.90;;;;;;4986705;28;20527;-68
2023/12/12 07:23:12;;;;;;;17.10;6.55;;;4.70;99.90;;;;;;4975636;28;20187;-69
2023/12/12 07:25:38;;;;;;;64.40;8.30;;;4.80;99.90;;;;;;4994810;28;20104;-69
2023/12/12 07:28:04;;;;;;;81.22;9.05;;;4.80;99.90;;;;;;4986800;28;20497;-69
2023/12/12 07:30:32;;;;;;;92.38;9.90;;;4.90;99.90;;;;;;4988826;28;20049;-69
2023/12/12 07:32:58;;;;;;;39.20;8.00;;;4.90;99.90;;;;;;4988989;28;20050;-68
2023/12/12 07:35:24;;;;;;;102.18;10.43;;;5.00;99.90;;;;;;4985696;28;20037;-68
2023/12/12 07:37:50;;;;;;;118.63;11.32;;;5.00;99.90;;;;;;4987390;28;20163;-69
2023/12/12 07:40:17;;;;;;;82.93;9.57;;;5.10;99.90;;;;;;4986544;28;20060;-68
2023/12/12 07:42:43;;;;;;;28.55;8.80;;;5.00;99.90;;;;;;4986844;28;20069;-69
2023/12/12 07:45:09;;;;;;;46.67;9.25;;;5.10;99.90;;;;;;4987195;28;20042;-69
2023/12/12 07:47:35;;;;;;;137.38;12.68;;;5.10;99.90;;;;;;4990986;28;20540;-69
2023/12/12 07:50:04;;;;;;;168.27;12.82;;;5.10;99.90;;;;;;4996561;28;20113;-68
2023/12/12 07:52:31;;;;;;;163.40;13.35;;;5.10;99.90;;;;;;4997568;28;20054;-68
2023/12/12 07:54:57;;;;;;;94.57;13.15;;;5.20;99.90;;;;;;4981736;28;20052;-69
2023/12/12 07:57:23;;;;;;;50.50;11.88;;;5.10;99.90;;;;;;4983268;28;20042;-69
2023/12/12 07:59:48;;;;;;;111.25;12.75;;;5.20;99.90;;;;;;4999557;28;20044;-69
2023/12/12 08:02:14;;;;;;;92.68;12.45;;;5.30;99.90;;;;;;4997079;28;20128;-69
2023/12/12 08:04:40;;;;;;;84.25;11.43;;;5.20;99.90;;;;;;4996329;28;20058;-69
2023/12/12 08:07:06;;;;;;;66.50;10.43;;;5.40;99.90;;;;;;4995617;28;20045;-69
2023/12/12 08:09:31;;;;;;;43.90;10.63;;;5.40;99.90;;;;;;4991698;28;20552;-69
2023/12/12 08:11:57;;;;;;;40.33;10.93;;;5.30;99.90;;;;;;4994403;28;20038;-69
2023/12/12 08:14:23;;;;;;;69.32;12.20;;;5.30;99.90;;;;;;4995630;28;20060;-69
2023/12/12 08:16:49;;;;;;;56.65;12.07;;;5.40;99.90;;;;;;4993360;28;20116;-69
2023/12/12 08:19:15;;;;;;;47.80;12.07;;;5.30;99.90;;;;;;4997438;28;20030;-69
2023/12/12 08:21:41;;;;;;;56.22;13.00;;;5.40;99.90;;;;;;4994786;28;20038;-69
2023/12/12 08:24:07;;;;;;;33.72;11.43;;;5.40;99.90;;;;;;4995343;28;20046;-69
2023/12/12 08:26:41;;;;;;;46.65;13.45;;;5.40;99.90;;;;;;4995609;28;20474;-68
2023/12/12 08:29:06;;;;;;;50.65;12.75;;;5.50;99.90;;;;;;4995702;28;20202;-69
2023/12/12 08:31:32;;;;;;;75.18;16.05;;;5.50;99.90;;;;;;4996094;28;20555;-69
2023/12/12 08:33:58;;;;;;;88.25;15.50;;;5.50;99.90;;;;;;4993656;28;20552;-68
2023/12/12 08:36:25;;;;;;;117.00;16.42;;;5.50;99.90;;;;;;4994455;28;20064;-69
2023/12/12 08:38:51;;;;;;;39.30;14.65;;;5.60;99.90;;;;;;4999232;28;20464;-69
2023/12/12 08:41:17;;;;;;;30.30;15.63;;;5.60;99.90;;;;;;4999605;28;20412;-68
2023/12/12 08:43:42;;;;;;;28.48;14.50;;;5.60;99.90;;;;;;4994070;28;20052;-69
2023/12/12 08:46:08;;;;;;;26.42;14.98;;;5.80;99.90;;;;;;4998391;28;20040;-68
2023/12/12 08:48:34;;;;;;;65.03;16.92;;;5.80;99.90;;;;;;4999290;28;20378;-69
2023/12/12 08:51:00;;;;;;;44.90;15.68;;;5.80;99.90;;;;;;4994145;28;20048;-69
2023/12/12 08:53:26;;;;;;;53.58;16.95;;;5.80;99.90;;;;;;4996231;28;20088;-69
2023/12/12 08:55:56;;;;;;;49.05;16.77;;;5.90;99.90;;;;;;4981484;28;20053;-68
2023/12/12 08:58:26;;;;;;;59.00;16.23;;;6.00;99.90;;;;;;4998367;28;20496;-70
2023/12/12 09:00:53;;;;;;;41.25;16.23;;;5.90;99.90;;;;;;4997442;28;20054;-70
2023/12/12 09:03:19;;;;;;;34.20;14.90;;;5.90;99.90;;;;;;4991649;28;20085;-70
2023/12/12 09:05:45;;;;;;;52.65;16.20;;;5.90;99.90;;;;;;4996181;28;20579;-68
2023/12/12 09:08:10;;;;;;;65.78;16.70;;;5.90;99.90;;;;;;4998362;28;20034;-70
2023/12/12 09:10:36;;;;;;;119.53;18.90;;;5.90;99.90;;;;;;4997972;28;20069;-71
2023/12/12 09:13:03;;;;;;;139.90;21.50;;;5.90;99.90;;;;;;5000141;28;20303;-69
2023/12/12 09:15:30;;;;;;;49.85;16.50;;;5.90;99.90;;;;;;4996075;28;20389;-70
2023/12/12 09:17:56;;;;;;;83.05;18.17;;;5.90;99.90;;;;;;4996894;28;20050;-69
2023/12/12 09:20:22;;;;;;;60.78;18.25;;;6.00;99.90;;;;;;4998612;28;20106;-71
2023/12/12 09:22:47;;;;;;;57.63;18.33;;;6.00;99.90;;;;;;4998342;28;20045;-70
2023/12/12 09:25:13;;;;;;;69.32;17.60;;;6.10;99.90;;;;;;4981236;28;20049;-70
2023/12/12 09:27:39;;;;;;;56.70;19.10;;;6.00;99.90;;;;;;4993618;28;20050;-69
2023/12/12 09:30:06;;;;;;;61.63;18.55;;;6.00;99.90;;;;;;4978725;28;20042;-70
2023/12/12 09:32:32;;;;;;;36.60;16.58;;;6.20;99.90;;;;;;5000008;28;20050;-70
2023/12/12 09:34:58;;;;;;;54.75;17.20;;;6.10;99.90;;;;;;4999930;28;20099;-70
2023/12/12 09:37:24;;;;;;;33.85;15.25;;;6.10;99.90;;;;;;4994730;28;20096;-70
2023/12/12 09:39:50;;;;;;;27.13;15.80;;;6.10;99.90;;;;;;4996213;28;20488;-71
2023/12/12 09:42:17;;;;;;;31.90;15.80;;;6.00;99.90;;;;;;4992766;28;20641;-71
2023/12/12 09:44:51;;;;;;;37.38;16.02;;;6.20;99.90;;;;;;4974459;28;20048;-71
2023/12/12 09:47:19;;;;;;;44.13;16.40;;;6.10;99.90;;;;;;5005429;28;20096;-70
2023/12/12 09:49:47;;;;;;;49.35;18.17;;;6.10;99.90;;;;;;5004203;28;20081;-71
2023/12/12 09:52:16;;;;;;;45.53;16.83;;;6.00;99.90;;;;;;5002420;28;20088;-71
2023/12/12 09:54:43;;;;;;;43.28;15.38;;;6.10;99.90;;;;;;5001768;28;20521;-71
2023/12/12 09:57:11;;;;;;;60.38;16.52;;;5.90;99.90;;;;;;4997835;28;20752;-69
2023/12/12 09:59:36;;;;;;;44.93;18.80;;;5.90;99.90;;;;;;4995754;28;20556;-71
2023/12/12 10:02:04;;;;;;;38.45;17.25;;;5.90;99.90;;;;;;4985653;28;20297;-70
2023/12/12 10:04:29;;;;;;;51.03;15.82;;;6.00;99.90;;;;;;5003543;28;20045;-70
2023/12/12 10:06:59;;;;;;;50.88;15.63;;;6.00;99.90;;;;;;5003248;28;20088;-71
2023/12/12 10:09:25;;;;;;;50.00;14.85;;;6.00;99.90;;;;;;4985177;28;20104;-71
2023/12/12 10:11:51;;;;;;;59.03;16.42;;;6.00;99.90;;;;;;5003417;28;20041;-70
2023/12/12 10:14:37;;;;;;;98.88;16.85;;;5.90;99.90;;;;;;5003078;28;20046;-70
2023/12/12 10:17:04;;;;;;;36.25;14.88;;;5.90;99.90;;;;;;5003234;28;20145;-71
2023/12/12 10:19:30;;;;;;;84.32;17.20;;;5.80;99.90;;;;;;4985584;28;20186;-71
2023/12/12 10:21:59;;;;;;;23.85;14.27;;;5.80;99.90;;;;;;4984949;28;20670;-71
2023/12/12 10:24:26;;;;;;;99.38;18.25;;;6.00;99.90;;;;;;5002623;28;20141;-71
2023/12/12 10:26:51;;;;;;;35.13;15.55;;;5.90;99.90;;;;;;4985197;28;20042;-71
2023/12/12 10:29:20;;;;;;;73.53;16.92;;;6.00;99.90;;;;;;5004054;28;20041;-71
2023/12/12 10:31:49;;;;;;;70.90;16.97;;;6.00;99.90;;;;;;5001157;28;20552;-70
2023/12/12 10:34:17;;;;;;;74.75;16.88;;;6.10;99.90;;;;;;4985510;28;20053;-70
2023/12/12 10:36:47;;;;;;;123.82;19.60;;;6.00;99.90;;;;;;5002115;28;20054;-71
2023/12/12 10:39:14;;;;;;;84.43;17.85;;;6.10;99.90;;;;;;5003331;28;20066;-70
2023/12/12 10:41:50;;;;;;;150.18;19.60;;;5.90;99.90;;;;;;5003073;28;20895;-70
2023/12/12 10:44:24;;;;;;;68.97;17.70;;;5.90;99.90;;;;;;5002936;28;20435;-71
2023/12/12 10:46:54;;;;;;;113.97;18.55;;;6.00;99.90;;;;;;4976984;28;20042;-70
2023/12/12 10:49:24;;;;;;;90.78;18.38;;;6.00;99.90;;;;;;5002677;28;20042;-71
2023/12/12 10:51:51;;;;;;;62.13;18.65;;;5.90;99.90;;;;;;5002588;28;20449;-70
2023/12/12 10:54:19;;;;;;;73.32;19.45;;;6.10;99.90;;;;;;5003162;28;20073;-71
2023/12/12 10:56:46;;;;;;;87.35;19.90;;;6.00;99.90;;;;;;5001404;28;20038;-70
2023/12/12 10:59:23;;;;;;;98.90;17.58;;;6.10;99.90;;;;;;5001704;28;20513;-71
2023/12/12 11:01:50;;;;;;;88.57;17.75;;;6.20;99.90;;;;;;5002919;28;20421;-71
2023/12/12 11:04:17;;;;;;;54.33;16.98;;;6.10;99.90;;;;;;5003434;28;20104;-71
2023/12/12 11:06:43;;;;;;;73.18;16.55;;;6.20;99.90;;;;;;4968569;28;20056;-70
2023/12/12 11:09:10;;;;;;;27.98;14.43;;;6.10;99.90;;;;;;5002276;28;20396;-72
2023/12/12 11:11:44;;;;;;;69.93;16.02;;;6.10;99.90;;;;;;5002028;28;20081;-71
2023/12/12 11:14:11;;;;;;;48.92;15.45;;;6.20;99.90;;;;;;5003302;28;20041;-71
2023/12/12 11:16:37;;;;;;;31.63;14.85;;;6.10;99.90;;;;;;5002891;28;20076;-71
2023/12/12 11:19:03;;;;;;;77.00;17.15;;;6.20;99.90;;;;;;5002828;28;20037;-70
2023/12/12 11:21:49;;;;;;;47.00;15.70;;;6.10;99.90;;;;;;5002639;28;20132;-71
2023/12/12 11:24:16;;;;;;;59.10;15.88;;;6.20;99.90;;;;;;5002942;28;20575;-70
2023/12/12 11:26:44;;;;;;;51.80;16.15;;;6.10;99.90;;;;;;5001939;28;20070;-71
2023/12/12 11:29:15;;;;;;;31.15;15.80;;;6.10;99.90;;;;;;4984393;28;20030;-71
2023/12/12 11:32:03;;;;;;;22.90;15.40;;;6.30;99.90;;;;;;4999108;28;20041;-71
2023/12/12 11:34:41;;;;;;;34.58;15.13;;;6.30;99.90;;;;;;5001518;28;20112;-70
2023/12/12 11:37:08;;;;;;;25.80;15.23;;;6.30;99.90;;;;;;5001877;28;20048;-71
2023/12/12 11:39:44;;;;;;;26.17;15.30;;;6.30;99.90;;;;;;4996131;28;20061;-71
2023/12/12 11:42:25;;;;;;;25.48;16.55;;;6.40;99.90;;;;;;5001809;28;20560;-71
2023/12/12 11:44:56;;;;;;;30.58;17.00;;;6.40;99.90;;;;;;5000734;28;20493;-71
2023/12/12 11:47:29;;;;;;;25.55;16.20;;;6.40;99.90;;;;;;4984669;28;20049;-72
2023/12/12 11:50:24;;;;;;;29.13;17.05;;;6.50;99.90;;;;;;5000507;28;20127;-71
2023/12/12 11:52:49;;;;;;;26.45;17.40;;;6.40;99.90;;;;;;4958762;28;20505;-72
2023/12/12 11:55:28;;;;;;;31.10;18.05;;;6.50;99.90;;;;;;5002313;28;20057;-71
2023/12/12 11:57:58;;;;;;;31.75;19.13;;;6.40;99.90;;;;;;5001025;28;20053;-70
2023/12/12 12:00:24;;;;;;;31.38;18.88;;;6.50;99.90;;;;;;5001492;28;20600;-70
2023/12/12 12:02:50;;;;;;;35.28;19.77;;;6.50;99.90;;;;;;4999241;28;20049;-71
2023/12/12 12:05:16;;;;;;;34.22;21.35;;;6.50;99.90;;;;;;4999205;28;20042;-71
2023/12/12 12:07:42;;;;;;;38.03;22.77;;;6.50;99.90;;;;;;5001411;28;20390;-70
2023/12/12 12:10:11;;;;;;;36.70;23.30;;;6.50;99.90;;;;;;4999145;28;20042;-71
2023/12/12 12:12:36;;;;;;;40.70;23.80;;;6.60;99.90;;;;;;4999985;28;20131;-71
2023/12/12 12:15:06;;;;;;;35.30;23.38;;;6.60;99.90;;;;;;4999769;28;20121;-71
2023/12/12 12:17:36;;;;;;;39.85;24.52;;;6.70;99.90;;;;;;5001000;28;20049;-71
2023/12/12 12:20:02;;;;;;;35.33;23.20;;;6.70;99.90;;;;;;4996929;28;20045;-70
2023/12/12 12:22:29;;;;;;;36.53;24.88;;;6.70;99.90;;;;;;4999678;28;20037;-70
2023/12/12 12:24:55;;;;;;;40.35;25.13;;;6.70;99.90;;;;;;4982885;28;20033;-71
2023/12/12 12:27:21;;;;;;;43.17;25.40;;;6.70;99.90;;;;;;5000042;28;20061;-71
2023/12/12 12:30:08;;;;;;;41.35;25.30;;;6.80;99.90;;;;;;4998798;28;20033;-71
2023/12/12 12:32:34;;;;;;;43.78;25.17;;;6.70;99.90;;;;;;4991877;28;20058;-70
2023/12/12 12:35:09;;;;;;;43.85;26.05;;;6.70;99.90;;;;;;4998993;28;20390;-71
2023/12/12 12:37:36;;;;;;;44.88;25.15;;;6.70;99.90;;;;;;4998726;28;20041;-70
2023/12/12 12:40:07;;;;;;;46.67;27.35;;;6.70;99.90;;;;;;4974977;28;20041;-70
2023/12/12 12:42:34;;;;;;;48.20;27.42;;;6.80;99.90;;;;;;4999711;28;20566;-71
2023/12/12 12:45:05;;;;;;;49.63;28.45;;;6.80;99.90;;;;;;4997949;28;20087;-71
2023/12/12 12:47:31;;;;;;;49.03;27.83;;;6.80;99.90;;;;;;4999937;28;20033;-70